createdAt,value
2018-02-17T04:32:36.269Z,99.90
2018-02-17T04:35:10.045Z,99.90
2018-02-17T04:37:44.696Z,99.90
2018-02-17T04:54:00.831Z,99.90
2018-02-17T04:56:41.061Z,99.90
2018-02-17T04:59:33.984Z,99.90
2018-02-17T05:15:44.271Z,99.90
2018-02-17T05:18:23.439Z,99.90
2018-02-17T05:20:57.369Z,99.90
2018-02-17T05:26:39.973Z,99.70
2018-02-17T05:29:16.151Z,99.70
2018-02-17T05:31:50.387Z,99.70
2018-02-17T05:34:30.692Z,99.60
2018-02-17T05:37:04.524Z,99.60
2018-02-17T05:53:05.099Z,99.40
2018-02-17T05:55:38.842Z,99.40
2018-02-17T05:58:12.569Z,99.80
2018-02-17T06:00:46.320Z,99.50
2018-02-17T06:03:20.127Z,99.50
2018-02-17T06:05:53.936Z,99.40
2018-02-17T06:08:28.723Z,99.20
2018-02-17T06:11:02.504Z,99.20
2018-02-17T06:13:36.160Z,99.20
2018-02-17T06:16:09.980Z,99.20
2018-02-17T06:18:43.821Z,99.00
2018-02-17T06:21:17.627Z,99.00
2018-02-17T06:23:52.184Z,98.90
2018-02-17T06:26:26.039Z,98.90
2018-02-17T06:29:00.824Z,98.90
2018-02-17T06:31:34.577Z,98.80
2018-02-17T06:34:08.628Z,98.60
2018-02-17T06:36:42.368Z,98.30
2018-02-17T06:39:16.640Z,98.40
2018-02-17T06:41:50.508Z,98.40
2018-02-17T06:44:24.264Z,98.40
2018-02-17T06:46:58.060Z,98.30
2018-02-17T06:49:31.909Z,98.50
2018-02-17T06:52:05.654Z,98.40
2018-02-17T06:54:39.384Z,98.50
2018-02-17T06:57:13.321Z,98.50
2018-02-17T06:59:47.894Z,98.20
2018-02-17T07:02:22.005Z,98.20
2018-02-17T07:04:55.855Z,98.10
2018-02-17T07:07:29.616Z,98.00
2018-02-17T07:10:04.150Z,98.00
2018-02-17T07:12:37.871Z,98.00
2018-02-17T07:15:12.463Z,97.70
2018-02-17T07:17:46.255Z,97.60
2018-02-17T07:20:19.880Z,97.90
2018-02-17T07:22:53.639Z,98.00
2018-02-17T07:25:28.204Z,98.10
2018-02-17T07:28:02.741Z,98.20
2018-02-17T07:30:36.492Z,98.20
2018-02-17T07:33:10.154Z,98.30
2018-02-17T07:35:43.940Z,98.30
2018-02-17T07:38:17.675Z,98.10
2018-02-17T07:40:51.445Z,98.00
2018-02-17T07:43:25.272Z,97.90
2018-02-17T07:45:58.964Z,97.80
2018-02-17T07:48:32.766Z,97.60
2018-02-17T07:51:07.257Z,97.60
2018-02-17T07:53:41.029Z,97.60
2018-02-17T07:56:15.305Z,97.60
2018-02-17T07:58:50.112Z,97.60
2018-02-17T08:01:23.747Z,97.50
2018-02-17T08:03:57.665Z,97.10
2018-02-17T08:06:31.411Z,97.10
2018-02-17T08:09:06.205Z,97.40
2018-02-17T08:11:40.004Z,97.40
2018-02-17T08:14:13.797Z,97.10
2018-02-17T08:16:47.604Z,97.00
2018-02-17T08:19:21.445Z,97.00
2018-02-17T08:21:55.311Z,96.90
2018-02-17T08:24:29.103Z,96.80
2018-02-17T08:27:03.643Z,97.10
2018-02-17T08:29:37.793Z,97.10
2018-02-17T08:32:11.592Z,97.30
2018-02-17T08:34:45.385Z,97.30
2018-02-17T08:37:19.296Z,97.00
2018-02-17T08:39:53.079Z,96.90
2018-02-17T08:42:27.811Z,96.90
2018-02-17T08:45:02.371Z,96.90
2018-02-17T08:47:36.246Z,96.90
2018-02-17T08:50:09.926Z,96.80
2018-02-17T08:52:44.571Z,96.40
2018-02-17T08:55:19.100Z,96.70
2018-02-17T08:57:53.232Z,96.70
2018-02-17T09:00:27.729Z,96.50
2018-02-17T09:03:01.432Z,96.50
2018-02-17T09:05:35.113Z,96.30
2018-02-17T09:08:08.951Z,95.80
2018-02-17T09:10:47.291Z,95.50
2018-02-17T09:13:21.786Z,95.50
2018-02-17T09:15:56.472Z,94.80
2018-02-17T09:18:30.328Z,94.70
2018-02-17T09:21:04.034Z,95.00
2018-02-17T09:23:37.819Z,95.10
2018-02-17T09:26:11.724Z,95.00
2018-02-17T09:28:45.600Z,95.20
2018-02-17T09:31:19.405Z,94.50
2018-02-17T09:33:54.020Z,94.60
2018-02-17T09:36:28.536Z,94.80
2018-02-17T09:39:02.336Z,94.80
2018-02-17T09:41:36.227Z,94.60
2018-02-17T09:44:10.083Z,94.60
2018-02-17T09:46:43.956Z,94.20
2018-02-17T09:49:17.834Z,94.10
2018-02-17T09:51:51.533Z,94.00
2018-02-17T09:54:25.313Z,94.20
2018-02-17T09:56:59.869Z,94.10
2018-02-17T09:59:33.707Z,94.10
2018-02-17T10:02:07.521Z,94.20
2018-02-17T10:04:41.269Z,94.30
2018-02-17T10:07:15.880Z,94.20
2018-02-17T10:09:49.634Z,94.20
2018-02-17T10:12:23.604Z,94.30
2018-02-17T10:14:58.381Z,94.20
2018-02-17T10:17:32.446Z,94.20
2018-02-17T10:20:06.145Z,94.30
2018-02-17T10:22:40.708Z,93.90
2018-02-17T10:25:14.414Z,93.90
2018-02-17T10:27:48.938Z,93.80
2018-02-17T10:30:22.730Z,93.80
2018-02-17T10:32:56.622Z,93.50
2018-02-17T10:35:30.356Z,93.40
2018-02-17T10:38:05.413Z,93.30
2018-02-17T10:40:39.120Z,93.50
2018-02-17T10:43:12.778Z,93.50
2018-02-17T10:45:46.511Z,93.60
2018-02-17T10:48:20.332Z,93.60
2018-02-17T10:50:54.097Z,94.40
2018-02-17T10:53:27.813Z,94.70
2018-02-17T10:56:01.610Z,94.60
2018-02-17T10:58:36.920Z,95.20
2018-02-17T11:01:10.646Z,95.00
2018-02-17T11:03:45.190Z,95.70
2018-02-17T11:06:19.042Z,95.70
2018-02-17T11:08:52.728Z,96.50
2018-02-17T11:11:27.348Z,97.20
2018-02-17T11:14:01.258Z,97.10
2018-02-17T11:16:35.092Z,97.60
2018-02-17T11:19:08.952Z,98.20
2018-02-17T11:21:42.862Z,98.60
2018-02-17T11:24:16.594Z,99.00
2018-02-17T11:26:50.421Z,99.20
2018-02-17T11:29:24.856Z,99.70
2018-02-17T11:31:59.063Z,99.70
2018-02-17T11:34:32.859Z,99.90
2018-02-17T11:37:06.855Z,99.90
2018-02-17T11:39:40.770Z,99.90
2018-02-17T11:42:14.595Z,99.90
2018-02-17T11:44:48.340Z,99.90
2018-02-17T11:47:22.168Z,99.90
2018-02-17T11:49:55.874Z,99.90
2018-02-17T11:52:29.832Z,99.90
2018-02-17T11:55:03.508Z,99.90
2018-02-17T11:57:37.464Z,99.90
2018-02-17T12:00:11.203Z,99.90
2018-02-17T12:02:45.610Z,99.90
2018-02-17T12:05:19.413Z,99.90
2018-02-17T12:07:53.298Z,99.90
2018-02-17T12:10:27.720Z,99.90
2018-02-17T12:13:01.552Z,99.90
2018-02-17T12:15:35.957Z,99.90
2018-02-17T12:18:09.753Z,99.90
2018-02-17T12:20:43.664Z,99.90
2018-02-17T12:23:17.384Z,99.90
2018-02-17T12:25:51.228Z,99.90
2018-02-17T12:28:25.786Z,99.90
2018-02-17T12:30:59.660Z,99.90
2018-02-17T12:33:34.244Z,99.90
2018-02-17T12:36:09.163Z,99.90
2018-02-17T12:38:43.201Z,99.90
2018-02-17T12:41:16.804Z,99.90
2018-02-17T12:43:50.570Z,99.90
2018-02-17T12:46:24.364Z,99.90
2018-02-17T12:48:58.913Z,99.90
2018-02-17T12:51:32.734Z,99.90
2018-02-17T12:54:06.445Z,99.90
2018-02-17T12:56:40.150Z,99.90
2018-02-17T12:59:13.984Z,99.90
2018-02-17T13:01:48.536Z,99.90
2018-02-17T13:04:23.109Z,99.90
2018-02-17T13:06:56.940Z,99.90
2018-02-17T13:09:30.753Z,99.90
2018-02-17T13:12:04.609Z,99.90
2018-02-17T13:14:39.229Z,99.90
2018-02-17T13:17:13.077Z,99.90
2018-02-17T13:19:46.855Z,99.90
2018-02-17T13:22:20.674Z,99.90
2018-02-17T13:24:54.478Z,99.90
2018-02-17T13:27:29.193Z,99.90
2018-02-17T13:30:03.021Z,99.90
2018-02-17T13:32:36.784Z,99.90
2018-02-17T13:35:10.524Z,99.90
2018-02-17T13:37:45.212Z,99.90
2018-02-17T13:40:19.850Z,99.90
2018-02-17T13:42:53.780Z,99.90
2018-02-17T13:45:27.636Z,99.90
2018-02-17T13:48:01.438Z,99.90
2018-02-17T13:50:35.213Z,99.90
2018-02-17T13:53:09.012Z,99.90
2018-02-17T13:55:42.748Z,99.90
2018-02-17T13:58:17.413Z,99.90
2018-02-17T14:00:51.244Z,99.90
2018-02-17T14:03:24.984Z,99.90
2018-02-17T14:05:58.812Z,99.90
2018-02-17T14:08:32.659Z,99.90
2018-02-17T14:11:06.522Z,99.90
2018-02-17T14:13:40.305Z,99.90
2018-02-17T14:16:14.112Z,99.90
2018-02-17T14:18:47.892Z,99.90
2018-02-17T14:21:21.631Z,99.90
2018-02-17T14:23:55.440Z,99.90
2018-02-17T14:26:30.010Z,99.90
2018-02-17T14:29:03.777Z,99.90
2018-02-17T14:31:38.114Z,99.90
2018-02-17T14:34:11.924Z,99.90
2018-02-17T14:36:45.658Z,99.90
2018-02-17T14:39:19.349Z,99.90
2018-02-17T14:41:53.844Z,99.90
2018-02-17T14:44:27.722Z,99.90
2018-02-17T14:47:02.278Z,99.90
2018-02-17T14:49:36.045Z,99.90
2018-02-17T14:52:10.077Z,99.90
2018-02-17T14:54:43.925Z,99.90
2018-02-17T14:57:18.410Z,99.90
2018-02-17T14:59:52.202Z,99.90
2018-02-17T15:02:26.070Z,99.90
2018-02-17T15:04:59.898Z,99.90
2018-02-17T15:07:33.632Z,99.90
2018-02-17T15:10:07.353Z,99.90
2018-02-17T15:12:41.861Z,99.90
2018-02-17T15:15:16.573Z,99.90
2018-02-17T15:17:50.209Z,99.90
2018-02-17T15:20:23.962Z,99.90
2018-02-17T15:22:57.656Z,99.90
2018-02-17T15:25:31.475Z,99.90
2018-02-17T15:28:05.139Z,99.90
2018-02-17T15:30:38.901Z,99.90
2018-02-17T15:33:12.673Z,99.90
2018-02-17T15:35:47.275Z,99.90
2018-02-17T15:38:21.097Z,99.90
2018-02-17T15:40:54.813Z,99.90
2018-02-17T15:43:28.602Z,99.90
2018-02-17T15:46:02.429Z,99.90
2018-02-17T15:48:36.185Z,99.90
2018-02-17T15:51:10.207Z,99.90
2018-02-17T15:53:43.899Z,99.90
2018-02-17T15:56:18.431Z,99.90
2018-02-17T15:58:52.962Z,99.90
2018-02-17T16:01:26.741Z,99.90
2018-02-17T16:04:00.551Z,99.90
2018-02-17T16:06:34.369Z,99.90
2018-02-17T16:09:09.001Z,99.90
2018-02-17T16:11:42.845Z,99.90
2018-02-17T16:14:16.696Z,99.90
2018-02-17T16:16:50.625Z,99.90
2018-02-17T16:19:24.444Z,99.90
2018-02-17T16:21:59.140Z,99.90
2018-02-17T16:24:32.851Z,99.90
2018-02-17T16:27:06.542Z,99.90
2018-02-17T16:29:40.312Z,99.90
2018-02-17T16:32:14.036Z,99.90
2018-02-17T16:34:47.836Z,99.90
2018-02-17T16:37:22.261Z,99.90
2018-02-17T16:39:56.215Z,99.90
2018-02-17T16:42:32.706Z,99.90
2018-02-17T16:45:07.205Z,99.90
2018-02-17T16:47:41.027Z,99.90
2018-02-17T16:50:14.678Z,99.90
2018-02-17T16:52:48.356Z,99.90
2018-02-17T16:55:22.173Z,99.90
2018-02-17T16:57:55.989Z,99.90
2018-02-17T17:00:29.885Z,99.90
2018-02-17T17:03:03.659Z,99.90
2018-02-17T17:05:37.494Z,99.90
2018-02-17T17:08:11.384Z,99.90
2018-02-17T17:10:46.004Z,99.90
2018-02-17T17:13:20.237Z,99.90
2018-02-17T17:15:54.933Z,99.90
2018-02-17T17:18:28.640Z,99.90
2018-02-17T17:21:02.463Z,99.90
2018-02-17T17:23:36.186Z,99.90
2018-02-17T17:26:09.983Z,99.90
2018-02-17T17:28:44.477Z,99.90
2018-02-17T17:31:19.132Z,99.90
2018-02-17T17:33:53.757Z,99.90
2018-02-17T17:36:27.558Z,99.90
2018-02-17T17:39:01.396Z,99.90
2018-02-17T17:41:35.183Z,99.90
2018-02-17T17:44:08.922Z,99.90
2018-02-17T17:46:42.804Z,99.90
2018-02-17T17:49:16.512Z,99.90
2018-02-17T17:51:51.338Z,99.90
2018-02-17T17:54:25.268Z,99.90
2018-02-17T17:56:59.152Z,99.90
2018-02-17T17:59:33.626Z,99.90
2018-02-17T18:02:08.256Z,99.90
2018-02-17T18:04:42.069Z,99.90
2018-02-17T18:07:15.948Z,99.90
2018-02-17T18:09:49.657Z,99.90
2018-02-17T18:12:24.329Z,99.90
2018-02-17T18:14:58.833Z,99.90
2018-02-17T18:17:33.344Z,99.90
2018-02-17T18:20:07.121Z,99.90
2018-02-17T18:22:40.887Z,99.90
2018-02-17T18:25:14.612Z,99.90
2018-02-17T18:27:48.316Z,99.90
2018-02-17T18:30:22.851Z,99.90
2018-02-17T18:32:57.021Z,99.90
2018-02-17T18:35:30.787Z,99.90
2018-02-17T18:38:06.508Z,99.90
2018-02-17T18:40:40.138Z,99.90
2018-02-17T18:43:13.901Z,99.90
2018-02-17T18:45:47.651Z,99.90
2018-02-17T18:48:21.508Z,99.90
2018-02-17T18:50:55.392Z,99.90
2018-02-17T18:53:29.214Z,99.90
2018-02-17T18:56:03.049Z,99.90
2018-02-17T18:58:36.928Z,99.90
2018-02-17T19:01:10.849Z,99.90
2018-02-17T19:03:44.646Z,99.90
2018-02-17T19:06:18.432Z,99.90
2018-02-17T19:08:52.292Z,99.90
2018-02-17T19:11:26.824Z,99.90
2018-02-17T19:14:01.364Z,99.90
2018-02-17T19:16:35.309Z,99.90
2018-02-17T19:19:09.079Z,99.90
2018-02-17T19:21:42.946Z,99.90
2018-02-17T19:24:17.448Z,99.90
2018-02-17T19:26:51.172Z,99.90
2018-02-17T19:29:26.068Z,99.90
2018-02-17T19:31:59.848Z,99.90
2018-02-17T19:34:33.667Z,99.90
2018-02-17T19:37:07.567Z,99.90
2018-02-17T19:39:41.437Z,99.90
2018-02-17T19:42:15.088Z,99.90
2018-02-17T19:44:48.946Z,99.90
2018-02-17T19:47:22.732Z,99.90
2018-02-17T19:49:56.573Z,99.90
2018-02-17T19:52:31.152Z,99.90
2018-02-17T19:55:04.911Z,99.90
2018-02-17T19:57:39.441Z,99.90
2018-02-17T20:00:13.983Z,99.90
2018-02-17T20:02:47.744Z,99.90
2018-02-17T20:05:21.526Z,99.90
2018-02-17T20:07:55.319Z,99.90
2018-02-17T20:10:29.138Z,99.90
2018-02-17T20:13:02.930Z,99.90
2018-02-17T20:15:36.770Z,99.90
2018-02-17T20:18:10.480Z,99.90
2018-02-17T20:20:44.948Z,99.90
2018-02-17T20:23:18.688Z,99.90
2018-02-17T20:25:52.493Z,99.90
2018-02-17T20:28:26.962Z,99.90
2018-02-17T20:31:00.854Z,99.90
2018-02-17T20:33:34.588Z,99.90
2018-02-17T20:36:09.158Z,99.90
2018-02-17T20:38:43.672Z,99.90
2018-02-17T20:41:17.485Z,99.90
2018-02-17T20:43:52.088Z,99.90
2018-02-17T20:46:25.856Z,99.90
2018-02-17T20:48:59.476Z,99.90
2018-02-17T20:51:34.000Z,99.90
2018-02-17T20:54:07.780Z,99.90
2018-02-17T20:56:41.649Z,99.90
2018-02-17T20:59:15.532Z,99.90
2018-02-17T21:01:50.044Z,99.90
2018-02-17T21:04:23.748Z,99.90
2018-02-17T21:06:57.561Z,99.90
2018-02-17T21:09:32.162Z,99.90
2018-02-17T21:12:05.904Z,99.90
2018-02-17T21:14:39.581Z,99.90
2018-02-17T21:17:13.280Z,99.90
2018-02-17T21:19:47.794Z,99.90
2018-02-17T21:22:22.644Z,99.90
2018-02-17T21:24:56.459Z,99.90
2018-02-17T21:27:30.288Z,99.90
2018-02-17T21:30:04.041Z,99.90
2018-02-17T21:32:37.865Z,99.90
2018-02-17T21:35:11.712Z,99.90
2018-02-17T21:37:45.471Z,99.90
2018-02-17T21:40:19.300Z,99.90
2018-02-17T21:42:53.043Z,99.90
2018-02-17T21:45:26.837Z,99.90
2018-02-17T21:48:00.712Z,99.90
2018-02-17T21:50:34.443Z,99.90
2018-02-17T21:53:08.325Z,99.90
2018-02-17T21:55:42.083Z,99.90
2018-02-17T21:58:15.941Z,99.90
